createdAt,value
2023-01-05T00:00:04.729Z,31.13
2023-01-05T00:02:39.872Z,27.67
2023-01-05T00:05:07.428Z,31.87
2023-01-05T00:07:34.732Z,30.53
2023-01-05T00:10:01.990Z,32.63
2023-01-05T00:12:30.660Z,33.17
2023-01-05T00:14:57.939Z,31.67
2023-01-05T00:17:47.189Z,20.83
2023-01-05T00:20:17.300Z,20.57
2023-01-05T00:22:46.756Z,33.07
2023-01-05T00:25:14.930Z,20.63
2023-01-05T00:27:44.508Z,35.17
2023-01-05T00:30:13.342Z,24.00
2023-01-05T00:32:41.442Z,31.60
2023-01-05T00:51:50.214Z,23.37
2023-01-05T00:54:17.501Z,25.33
2023-01-05T00:56:44.710Z,26.63
2023-01-05T00:59:12.526Z,22.97
2023-01-05T01:01:40.021Z,27.67
2023-01-05T01:04:07.328Z,28.37
2023-01-05T01:06:36.009Z,20.70
2023-01-05T01:09:05.111Z,27.83
2023-01-05T01:11:32.437Z,19.53
2023-01-05T01:13:59.700Z,27.90
2023-01-05T01:16:27.112Z,28.33
2023-01-05T01:18:54.367Z,26.77
2023-01-05T01:24:35.067Z,23.60
2023-01-05T01:27:02.482Z,17.60
2023-01-05T01:29:29.698Z,28.70
2023-01-05T01:31:57.187Z,25.97
2023-01-05T01:34:24.514Z,28.00
2023-01-05T01:36:51.985Z,20.70
2023-01-05T01:39:23.898Z,22.70
2023-01-05T01:41:58.141Z,28.37
2023-01-05T01:44:44.073Z,24.13
2023-01-05T01:47:13.637Z,25.00
2023-01-05T01:49:41.207Z,22.57
2023-01-05T01:52:09.515Z,16.63
2023-01-05T01:54:57.212Z,14.53
2023-01-05T01:57:27.028Z,19.40
2023-01-05T01:59:54.374Z,23.07
2023-01-05T02:02:22.487Z,28.67
2023-01-05T02:04:50.479Z,20.20
2023-01-05T02:07:17.816Z,30.60
2023-01-05T02:10:05.389Z,19.80
2023-01-05T02:12:39.329Z,23.43
2023-01-05T02:15:14.697Z,21.47
2023-01-05T02:17:49.070Z,25.57
2023-01-05T02:26:47.488Z,22.00
2023-01-05T02:29:29.651Z,24.63
2023-01-05T02:32:04.255Z,20.33
2023-01-05T02:34:35.723Z,30.97
2023-01-05T02:37:08.315Z,25.10
2023-01-05T02:39:50.258Z,23.17
2023-01-05T02:42:20.616Z,15.27
2023-01-05T02:44:47.880Z,24.87
2023-01-05T02:47:38.278Z,25.03
2023-01-05T02:50:33.644Z,19.07
2023-01-05T02:53:06.604Z,18.90
2023-01-05T02:55:36.484Z,29.37
2023-01-05T02:58:07.244Z,23.77
2023-01-05T03:00:41.552Z,29.97
2023-01-05T03:03:13.442Z,23.07
2023-01-05T03:05:45.212Z,24.23
2023-01-05T03:08:15.386Z,16.90
2023-01-05T03:10:49.201Z,8.37
2023-01-05T03:13:16.958Z,16.97
2023-01-05T03:15:45.979Z,20.23
2023-01-05T03:18:16.906Z,17.33
2023-01-05T03:20:50.712Z,18.90
2023-01-05T03:23:19.837Z,28.87
2023-01-05T03:25:48.232Z,34.33
2023-01-05T03:28:18.683Z,19.97
2023-01-05T03:30:52.765Z,24.00
2023-01-05T03:33:24.420Z,26.43
2023-01-05T03:35:54.758Z,31.47
2023-01-05T03:38:26.387Z,27.67
2023-01-05T03:40:55.601Z,23.03
2023-01-05T03:43:23.289Z,22.37
2023-01-05T03:45:55.057Z,24.37
2023-01-05T03:48:30.607Z,28.80
2023-01-05T03:50:58.056Z,26.40
2023-01-05T03:53:27.010Z,28.73
2023-01-05T03:55:54.655Z,23.47
2023-01-05T03:58:23.986Z,21.50
2023-01-05T04:00:52.365Z,26.70
2023-01-05T04:03:26.275Z,32.47
2023-01-05T04:05:58.624Z,25.17
2023-01-05T04:55:18.209Z,21.60
2023-01-05T04:57:46.566Z,27.80
2023-01-05T05:00:15.499Z,18.83
2023-01-05T05:02:43.983Z,24.20
2023-01-05T05:05:14.470Z,30.97
2023-01-05T06:07:25.174Z,38.37
2023-01-05T06:09:53.829Z,30.23
2023-01-05T06:12:21.148Z,23.63
2023-01-05T06:14:48.550Z,37.33
2023-01-05T06:20:59.588Z,23.57
2023-01-05T06:23:28.816Z,29.13
2023-01-05T06:25:57.451Z,25.63
2023-01-05T06:28:24.674Z,32.50
2023-01-05T06:30:51.979Z,25.83
2023-01-05T06:33:19.223Z,32.47
2023-01-05T06:35:55.574Z,22.10
2023-01-05T06:38:22.814Z,27.83
2023-01-05T06:40:50.036Z,26.67
2023-01-05T06:43:18.649Z,23.40
2023-01-05T06:46:07.521Z,22.73
2023-01-05T06:48:47.020Z,38.10
2023-01-05T06:51:14.449Z,34.30
2023-01-05T06:53:41.679Z,33.33
2023-01-05T06:56:08.965Z,25.23
2023-01-05T06:58:37.683Z,23.83
2023-01-05T07:01:05.190Z,33.80
2023-01-05T07:03:32.544Z,20.53
2023-01-05T07:26:07.247Z,31.70
2023-01-05T07:28:34.974Z,30.40
2023-01-05T07:31:02.247Z,28.87
2023-01-05T07:33:30.799Z,37.30
2023-01-05T07:36:01.505Z,30.50
2023-01-05T07:38:29.258Z,36.77
2023-01-05T12:44:40.884Z,28.87
2023-01-05T12:47:15.678Z,32.90
2023-01-05T12:49:45.003Z,37.93
2023-01-05T12:52:15.280Z,31.43
2023-01-05T12:54:45.058Z,30.13
2023-01-05T13:19:33.946Z,25.07
2023-01-05T13:22:04.645Z,29.50
2023-01-05T13:24:33.912Z,32.50
2023-01-05T13:27:02.246Z,31.83
2023-01-05T13:29:31.754Z,17.67
2023-01-05T14:22:50.015Z,33.83
2023-01-05T14:25:35.989Z,24.07
2023-01-05T14:28:18.140Z,25.23
2023-01-05T14:30:45.469Z,22.03
2023-01-05T14:33:12.866Z,21.67
2023-01-05T14:55:37.741Z,22.67
2023-01-05T14:58:06.224Z,24.13
2023-01-05T15:00:38.389Z,16.37
2023-01-05T15:03:11.733Z,25.70
2023-01-05T15:06:05.309Z,20.47
2023-01-05T15:08:43.389Z,28.73
2023-01-05T15:11:28.619Z,23.30
2023-01-05T15:14:09.438Z,18.63
2023-01-05T15:20:30.155Z,19.87
2023-01-05T15:23:04.849Z,20.93
2023-01-05T15:25:53.014Z,17.27
2023-01-05T15:28:40.007Z,16.87
2023-01-05T15:31:20.481Z,20.33
2023-01-05T15:33:51.017Z,15.83
2023-01-05T15:36:25.785Z,15.10
2023-01-05T15:38:53.218Z,10.77
2023-01-05T15:41:21.654Z,11.83
2023-01-05T15:43:49.830Z,15.10
2023-01-05T15:50:16.871Z,13.20
2023-01-05T15:52:51.923Z,10.83
2023-01-05T15:55:19.605Z,16.90
2023-01-05T15:57:52.619Z,17.73
2023-01-05T16:00:21.468Z,13.90
2023-01-05T16:02:48.780Z,15.57
2023-01-05T16:05:19.729Z,16.50
2023-01-05T16:07:51.966Z,10.90
2023-01-05T16:10:20.481Z,13.27
2023-01-05T16:12:48.668Z,13.73
2023-01-05T16:18:54.139Z,11.60
2023-01-05T16:21:31.320Z,19.97
2023-01-05T16:24:02.044Z,14.27
2023-01-05T16:26:29.454Z,15.00
2023-01-05T16:28:56.704Z,11.93
2023-01-05T16:31:26.660Z,12.23
2023-01-05T16:36:58.987Z,14.73
2023-01-05T16:39:32.787Z,12.33
2023-01-05T16:42:03.821Z,14.30
2023-01-05T16:44:31.213Z,13.17
2023-01-05T16:47:05.037Z,12.10
2023-01-05T16:49:57.231Z,10.10
2023-01-05T16:53:06.735Z,14.07
2023-01-05T16:55:36.537Z,9.87
2023-01-05T16:58:05.042Z,12.60
2023-01-05T17:00:37.087Z,11.07
2023-01-05T17:03:24.399Z,10.47
2023-01-05T17:05:52.732Z,16.77
2023-01-05T17:22:28.043Z,16.07
2023-01-05T17:28:30.776Z,19.50
2023-01-05T17:30:58.311Z,18.53
2023-01-05T17:33:25.612Z,17.37
2023-01-05T17:35:52.922Z,19.13
2023-01-05T17:38:21.561Z,18.33
2023-01-05T17:40:49.451Z,21.53
2023-01-05T17:48:55.084Z,20.10
2023-01-05T17:51:22.546Z,18.07
2023-01-05T17:57:28.999Z,11.47
2023-01-05T17:59:56.519Z,17.67
2023-01-05T18:02:23.955Z,17.53
2023-01-05T18:04:51.426Z,16.73
2023-01-05T18:07:19.664Z,14.13
2023-01-05T18:09:46.958Z,13.83
2023-01-05T18:12:14.279Z,14.20
2023-01-05T18:14:43.303Z,19.10
2023-01-05T18:17:10.934Z,15.10
2023-01-05T18:19:38.350Z,17.83
2023-01-05T18:22:05.599Z,11.57
2023-01-05T18:24:32.913Z,8.63
2023-01-05T18:27:00.156Z,15.33
2023-01-05T18:29:46.071Z,18.67
2023-01-05T18:32:34.027Z,17.90
2023-01-05T18:35:05.752Z,14.60
2023-01-05T18:37:36.611Z,17.70
2023-01-05T18:40:04.228Z,21.27
2023-01-05T18:42:31.531Z,13.17
2023-01-05T18:44:59.908Z,18.07
2023-01-05T19:35:53.215Z,20.03
2023-01-05T19:38:20.418Z,18.47
2023-01-05T19:40:47.649Z,27.53
2023-01-05T19:46:50.875Z,27.57
2023-01-05T19:49:19.495Z,33.23
2023-01-05T19:51:48.586Z,19.83
2023-01-05T19:54:16.518Z,30.40
2023-01-05T19:56:44.271Z,23.80
2023-01-05T19:59:14.755Z,16.57
2023-01-05T20:01:42.095Z,12.93
2023-01-05T20:49:36.363Z,20.10
2023-01-05T20:52:04.029Z,17.60
2023-01-05T20:54:31.349Z,20.03
2023-01-05T20:56:58.605Z,20.50
2023-01-05T20:59:27.634Z,21.17
2023-01-05T21:18:35.900Z,15.57
2023-01-05T21:21:05.317Z,12.33
2023-01-05T21:23:32.723Z,19.33
2023-01-05T21:26:06.692Z,16.80
2023-01-05T21:28:35.836Z,12.73
2023-01-05T21:47:53.513Z,13.07
2023-01-05T21:50:20.835Z,18.03
2023-01-05T21:52:48.100Z,15.33
2023-01-05T21:55:15.551Z,8.40
2023-01-05T21:57:42.905Z,9.33
2023-01-05T22:17:05.817Z,10.37
2023-01-05T22:19:33.238Z,13.00
2023-01-05T22:22:00.476Z,8.37
2023-01-05T22:24:27.743Z,7.60
2023-01-05T22:26:54.969Z,11.07
2023-01-05T22:29:22.329Z,18.33
2023-01-05T22:34:42.221Z,8.60
2023-01-05T22:37:09.421Z,8.83
2023-01-05T22:39:36.641Z,11.93
2023-01-05T22:42:04.059Z,11.10
2023-01-05T22:44:31.406Z,11.37
2023-01-05T22:53:58.801Z,9.30
2023-01-05T22:56:28.130Z,13.17
2023-01-05T22:58:55.430Z,9.93
2023-01-05T23:01:24.138Z,6.40
2023-01-05T23:03:52.214Z,9.47
2023-01-05T23:06:19.541Z,10.60
2023-01-05T23:08:47.111Z,10.53
2023-01-05T23:11:16.373Z,8.33
2023-01-05T23:13:44.051Z,8.93
2023-01-05T23:16:11.442Z,6.43
2023-01-05T23:18:39.305Z,12.83
2023-01-05T23:21:08.351Z,4.67
2023-01-05T23:23:35.988Z,12.60
2023-01-05T23:26:10.332Z,4.47
2023-01-05T23:32:14.511Z,7.57
2023-01-05T23:34:41.766Z,6.93
2023-01-05T23:37:08.979Z,7.50
2023-01-05T23:39:36.225Z,7.03
2023-01-05T23:42:03.500Z,5.40
